createdAt,value
2017-11-23T00:01:25.831Z,10.00
2017-11-23T00:03:54.070Z,10.30
2017-11-23T00:06:21.486Z,10.20
2017-11-23T00:08:49.706Z,10.30
2017-11-23T00:11:17.152Z,10.20
2017-11-23T00:13:44.613Z,10.30
2017-11-23T00:16:12.086Z,10.30
2017-11-23T00:18:39.574Z,10.30
2017-11-23T00:21:07.019Z,10.40
2017-11-23T00:23:34.480Z,10.30
2017-11-23T00:26:01.936Z,10.30
2017-11-23T00:28:29.367Z,10.40
2017-11-23T00:30:56.855Z,10.30
2017-11-23T00:33:24.279Z,10.20
2017-11-23T00:35:52.466Z,10.20
2017-11-23T00:38:19.980Z,10.20
2017-11-23T00:40:47.377Z,10.20
2017-11-23T00:43:14.827Z,10.20
2017-11-23T00:45:42.252Z,10.40
2017-11-23T00:48:09.688Z,10.40
2017-11-23T00:50:37.108Z,10.50
2017-11-23T00:53:05.328Z,10.50
2017-11-23T00:55:32.808Z,10.50
2017-11-23T00:58:00.272Z,10.60
2017-11-23T01:00:27.706Z,10.60
2017-11-23T01:02:55.127Z,10.60
2017-11-23T01:05:22.564Z,10.70
2017-11-23T01:07:50.058Z,10.60
2017-11-23T01:10:17.479Z,10.60
2017-11-23T01:12:44.939Z,10.70
2017-11-23T01:15:12.992Z,10.60
2017-11-23T01:17:40.409Z,10.70
2017-11-23T01:20:08.615Z,10.70
2017-11-23T01:22:36.834Z,10.70
2017-11-23T01:25:04.260Z,10.60
2017-11-23T01:27:31.692Z,10.60
2017-11-23T01:29:59.887Z,10.70
2017-11-23T01:32:27.322Z,10.70
2017-11-23T01:34:55.523Z,10.60
2017-11-23T01:37:23.039Z,10.60
2017-11-23T01:39:50.463Z,10.60
2017-11-23T01:42:18.923Z,10.50
2017-11-23T01:44:47.155Z,10.60
2017-11-23T01:47:14.594Z,10.60
2017-11-23T01:49:42.070Z,10.60
2017-11-23T01:52:09.551Z,10.60
2017-11-23T01:54:36.983Z,10.60
2017-11-23T01:57:04.459Z,10.60
2017-11-23T01:59:31.895Z,10.70
2017-11-23T02:01:59.372Z,10.60
2017-11-23T02:04:27.156Z,10.60
2017-11-23T02:06:54.634Z,10.60
2017-11-23T02:09:22.867Z,10.70
2017-11-23T02:11:50.301Z,10.60
2017-11-23T02:14:18.504Z,10.70
2017-11-23T02:16:45.934Z,10.70
2017-11-23T02:19:14.127Z,10.80
2017-11-23T02:21:42.383Z,10.90
2017-11-23T02:24:10.579Z,10.90
2017-11-23T02:26:38.775Z,10.90
2017-11-23T02:29:06.226Z,10.90
2017-11-23T02:31:33.667Z,10.80
2017-11-23T02:34:01.858Z,10.80
2017-11-23T02:36:30.047Z,10.90
2017-11-23T02:38:57.535Z,10.80
2017-11-23T02:41:25.002Z,10.80
2017-11-23T02:43:52.458Z,10.80
2017-11-23T02:46:19.879Z,10.90
2017-11-23T02:48:48.298Z,10.80
2017-11-23T02:51:15.728Z,10.80
2017-11-23T02:53:43.956Z,10.80
2017-11-23T02:56:11.380Z,10.80
2017-11-23T02:58:38.823Z,10.80
2017-11-23T03:01:07.048Z,10.70
2017-11-23T03:03:34.483Z,10.70
2017-11-23T03:06:01.964Z,10.70
2017-11-23T03:08:29.427Z,10.70
2017-11-23T03:10:56.907Z,10.80
2017-11-23T03:13:24.332Z,10.90
2017-11-23T03:15:51.772Z,10.90
2017-11-23T03:18:19.965Z,10.90
2017-11-23T03:20:47.448Z,10.90
2017-11-23T03:23:14.863Z,10.90
2017-11-23T03:25:43.087Z,11.00
2017-11-23T03:28:10.541Z,11.00
2017-11-23T03:30:37.995Z,10.90
2017-11-23T03:33:05.423Z,10.90
2017-11-23T03:35:33.606Z,11.00
2017-11-23T03:38:01.819Z,11.00
2017-11-23T03:40:29.287Z,11.00
2017-11-23T03:42:56.748Z,11.00
2017-11-23T03:45:24.211Z,11.00
2017-11-23T03:47:51.652Z,11.10
2017-11-23T03:50:19.136Z,11.10
2017-11-23T03:52:46.576Z,11.10
2017-11-23T03:55:14.057Z,11.20
2017-11-23T03:57:41.558Z,11.20
2017-11-23T04:00:08.991Z,11.30
2017-11-23T04:02:36.411Z,11.30
2017-11-23T04:05:03.848Z,11.30
2017-11-23T04:07:32.078Z,11.30
2017-11-23T04:09:59.531Z,11.30
2017-11-23T04:12:27.004Z,11.20
2017-11-23T04:14:54.439Z,11.20
2017-11-23T04:17:21.890Z,11.20
2017-11-23T04:19:49.335Z,11.30
2017-11-23T04:22:17.527Z,11.30
2017-11-23T04:24:45.023Z,11.30
2017-11-23T04:27:12.491Z,11.30
2017-11-23T04:29:39.911Z,11.30
2017-11-23T04:32:07.404Z,11.30
2017-11-23T04:34:34.869Z,11.30
2017-11-23T04:37:02.374Z,11.30
2017-11-23T04:39:30.642Z,11.40
2017-11-23T04:41:58.075Z,11.40
2017-11-23T04:44:25.512Z,11.40
2017-11-23T04:46:53.001Z,11.30
2017-11-23T04:49:20.460Z,11.30
2017-11-23T04:51:47.911Z,11.20
2017-11-23T04:54:15.370Z,11.30
2017-11-23T04:56:42.835Z,11.20
2017-11-23T04:59:10.299Z,11.30
2017-11-23T05:01:37.763Z,11.30
2017-11-23T05:04:05.222Z,11.30
2017-11-23T05:06:32.679Z,11.30
2017-11-23T05:09:00.115Z,11.40
2017-11-23T05:11:27.544Z,11.40
2017-11-23T05:13:55.772Z,11.30
2017-11-23T05:16:23.183Z,11.30
2017-11-23T05:18:50.599Z,11.30
2017-11-23T05:21:18.075Z,11.40
2017-11-23T05:23:45.586Z,11.40
2017-11-23T05:26:13.091Z,11.40
2017-11-23T05:28:40.514Z,11.30
2017-11-23T05:31:08.723Z,11.30
2017-11-23T05:33:36.204Z,11.30
2017-11-23T05:36:03.669Z,11.40
2017-11-23T05:38:31.086Z,11.30
2017-11-23T05:40:58.523Z,11.30
2017-11-23T05:43:26.734Z,11.40
2017-11-23T05:45:54.929Z,11.30
2017-11-23T05:48:23.815Z,11.30
2017-11-23T05:50:51.255Z,11.40
2017-11-23T05:53:18.757Z,11.30
2017-11-23T05:55:46.700Z,11.30
2017-11-23T05:58:14.127Z,11.40
2017-11-23T06:00:42.324Z,11.50
2017-11-23T06:03:09.768Z,11.50
2017-11-23T06:05:37.200Z,11.40
2017-11-23T06:08:04.744Z,11.40
2017-11-23T06:10:32.167Z,11.40
2017-11-23T06:13:00.492Z,11.50
2017-11-23T06:15:27.949Z,11.50
2017-11-23T06:17:55.384Z,11.50
2017-11-23T06:20:22.815Z,11.60
2017-11-23T06:22:51.047Z,11.70
2017-11-23T06:25:18.739Z,11.70
2017-11-23T06:27:46.178Z,11.80
2017-11-23T06:30:13.635Z,11.90
2017-11-23T06:32:41.076Z,12.00
2017-11-23T06:35:08.555Z,12.10
2017-11-23T06:37:35.987Z,12.10
2017-11-23T06:40:03.424Z,12.10
2017-11-23T06:42:30.943Z,12.10
2017-11-23T06:44:58.379Z,12.20
2017-11-23T06:47:25.864Z,12.20
2017-11-23T06:49:53.336Z,12.20
2017-11-23T06:52:20.758Z,12.20
2017-11-23T06:54:48.197Z,12.30
2017-11-23T06:57:16.383Z,12.20
2017-11-23T06:59:44.587Z,12.20
2017-11-23T07:02:12.742Z,12.20
2017-11-23T07:04:40.959Z,12.30
2017-11-23T07:07:08.423Z,12.30
2017-11-23T07:09:35.878Z,12.40
2017-11-23T07:12:03.428Z,12.40
2017-11-23T07:14:30.907Z,12.40
2017-11-23T07:16:58.338Z,12.50
2017-11-23T07:19:25.824Z,12.50
2017-11-23T07:21:53.287Z,12.40
2017-11-23T07:24:20.711Z,12.50
2017-11-23T07:26:49.042Z,12.40
2017-11-23T07:29:16.471Z,12.40
2017-11-23T07:31:43.955Z,12.40
2017-11-23T07:34:11.407Z,12.50
2017-11-23T07:36:38.827Z,12.60
2017-11-23T07:39:07.031Z,12.60
2017-11-23T07:41:34.515Z,12.60
2017-11-23T07:44:01.943Z,12.70
2017-11-23T07:46:29.439Z,12.70
2017-11-23T07:48:56.949Z,12.70
2017-11-23T07:51:25.155Z,12.80
2017-11-23T07:53:52.638Z,12.80
2017-11-23T07:56:20.099Z,12.90
2017-11-23T07:58:47.653Z,12.90
2017-11-23T08:01:15.063Z,12.90
2017-11-23T08:03:42.506Z,12.90
2017-11-23T08:06:09.936Z,12.90
2017-11-23T08:08:37.451Z,12.90
2017-11-23T08:11:05.650Z,12.80
2017-11-23T08:13:33.879Z,12.70
2017-11-23T08:16:01.322Z,12.70
2017-11-23T08:18:28.760Z,12.70
2017-11-23T08:20:57.068Z,12.70
2017-11-23T08:23:24.529Z,12.70
2017-11-23T08:25:52.005Z,12.70
2017-11-23T08:28:19.445Z,12.70
2017-11-23T08:30:46.920Z,12.70
2017-11-23T08:33:14.375Z,12.80
2017-11-23T08:35:41.832Z,12.90
2017-11-23T08:38:09.265Z,13.10
2017-11-23T08:40:36.760Z,13.30
2017-11-23T08:43:04.194Z,13.60
2017-11-23T08:45:31.612Z,13.60
2017-11-23T08:47:59.054Z,13.70
2017-11-23T08:50:26.471Z,13.60
2017-11-23T08:52:53.923Z,13.60
2017-11-23T08:55:27.048Z,13.60
2017-11-23T08:57:54.479Z,13.60
2017-11-23T09:00:21.908Z,13.60
2017-11-23T09:02:51.179Z,13.60
2017-11-23T09:05:19.524Z,13.60
2017-11-23T09:07:47.738Z,13.40
2017-11-23T09:10:15.288Z,13.40
2017-11-23T09:12:43.688Z,13.50
2017-11-23T09:15:11.144Z,13.40
2017-11-23T09:17:38.603Z,13.40
2017-11-23T09:20:06.040Z,13.40
2017-11-23T09:22:33.527Z,13.40
2017-11-23T09:25:01.016Z,13.40
2017-11-23T09:27:28.446Z,13.50
2017-11-23T09:29:55.870Z,13.40
2017-11-23T09:32:24.092Z,13.50
2017-11-23T09:34:51.519Z,13.50
2017-11-23T09:37:18.944Z,13.60
2017-11-23T09:39:46.475Z,13.60
2017-11-23T09:42:13.890Z,13.70
2017-11-23T09:44:42.119Z,13.70
2017-11-23T09:47:09.543Z,13.70
2017-11-23T09:49:37.056Z,13.80
2017-11-23T09:52:04.604Z,13.80
2017-11-23T09:54:32.059Z,13.80
2017-11-23T09:56:59.523Z,13.80
2017-11-23T09:59:26.951Z,13.80
2017-11-23T10:01:54.446Z,13.80
2017-11-23T10:04:21.912Z,13.90
2017-11-23T10:06:49.454Z,13.90
2017-11-23T10:09:16.873Z,13.80
2017-11-23T10:11:45.115Z,13.80
2017-11-23T10:14:18.285Z,13.80
2017-11-23T10:16:45.849Z,13.80
2017-11-23T10:19:13.358Z,13.90
2017-11-23T10:21:42.315Z,13.80
2017-11-23T10:24:09.758Z,13.80
2017-11-23T10:26:37.188Z,13.80
2017-11-23T10:29:05.423Z,13.80
2017-11-23T10:31:32.866Z,13.90
2017-11-23T10:34:00.342Z,13.80
2017-11-23T10:36:27.762Z,13.90
2017-11-23T10:38:55.987Z,14.20
2017-11-23T10:41:23.416Z,14.10
2017-11-23T10:43:50.907Z,14.20
2017-11-23T10:46:18.378Z,14.20
2017-11-23T10:48:45.810Z,14.10
2017-11-23T10:51:13.243Z,14.00
2017-11-23T10:53:41.461Z,13.70
2017-11-23T10:56:08.940Z,13.70
2017-11-23T10:58:36.373Z,13.60
2017-11-23T11:01:04.667Z,13.50
2017-11-23T11:03:32.113Z,13.50
2017-11-23T11:05:59.590Z,13.50
2017-11-23T11:08:27.031Z,13.40
2017-11-23T11:10:54.719Z,13.40
2017-11-23T11:13:22.178Z,13.40
2017-11-23T11:15:49.599Z,13.40
2017-11-23T11:18:17.907Z,13.20
2017-11-23T11:20:45.315Z,13.20
2017-11-23T11:23:12.752Z,13.30
2017-11-23T11:25:40.167Z,13.30
2017-11-23T11:28:08.379Z,13.30
2017-11-23T11:30:35.905Z,13.20
2017-11-23T11:33:04.108Z,13.30
2017-11-23T11:35:31.531Z,13.20
2017-11-23T11:37:59.730Z,13.40
2017-11-23T11:40:27.155Z,13.40
2017-11-23T11:42:54.978Z,13.40
2017-11-23T11:45:22.404Z,13.60
2017-11-23T11:47:50.632Z,13.80
2017-11-23T11:50:18.063Z,13.80
2017-11-23T11:52:45.483Z,13.80
2017-11-23T11:55:12.920Z,14.00
2017-11-23T11:57:40.359Z,14.20
2017-11-23T12:00:07.833Z,14.40
2017-11-23T12:02:35.268Z,14.50
2017-11-23T12:05:02.758Z,14.60
2017-11-23T12:07:30.192Z,14.60
2017-11-23T12:09:57.628Z,14.70
2017-11-23T12:12:25.051Z,14.70
2017-11-23T12:15:04.448Z,14.60
2017-11-23T12:17:43.763Z,14.60
2017-11-23T12:20:15.782Z,14.60
2017-11-23T12:25:49.399Z,14.70
2017-11-23T12:28:28.866Z,14.60
2017-11-23T12:30:57.062Z,14.70
2017-11-23T12:33:24.496Z,14.70
2017-11-23T12:35:52.722Z,14.80
2017-11-23T12:38:20.154Z,14.80
2017-11-23T12:40:47.648Z,14.80
2017-11-23T12:43:15.078Z,14.80
2017-11-23T12:45:42.571Z,14.80
2017-11-23T12:48:10.030Z,14.90
2017-11-23T12:50:37.451Z,15.00
2017-11-23T12:53:05.638Z,15.00
2017-11-23T12:55:33.071Z,15.00
2017-11-23T12:58:00.682Z,15.00
2017-11-23T13:00:28.100Z,15.10
2017-11-23T13:02:56.341Z,15.00
2017-11-23T13:05:23.788Z,15.00
2017-11-23T13:07:51.231Z,15.00
2017-11-23T13:10:19.437Z,15.00
2017-11-23T13:12:46.871Z,14.90
2017-11-23T13:15:14.364Z,14.90
2017-11-23T13:17:41.919Z,14.90
2017-11-23T13:20:09.382Z,14.90
2017-11-23T13:22:36.884Z,14.80
2017-11-23T13:25:04.299Z,14.90
2017-11-23T13:27:31.812Z,14.90
2017-11-23T13:29:59.232Z,14.90
2017-11-23T13:32:26.691Z,14.80
2017-11-23T13:34:54.151Z,14.80
2017-11-23T13:37:21.571Z,14.70
2017-11-23T13:39:49.766Z,14.80
2017-11-23T13:42:17.211Z,14.80
2017-11-23T13:44:45.436Z,14.90
2017-11-23T13:47:12.867Z,14.90
2017-11-23T13:49:40.387Z,15.00
2017-11-23T13:52:07.827Z,15.00
2017-11-23T13:54:35.282Z,15.00
2017-11-23T13:57:02.717Z,14.90
2017-11-23T13:59:30.144Z,14.90
2017-11-23T14:01:58.375Z,14.70
2017-11-23T14:04:25.822Z,14.70
2017-11-23T14:06:53.238Z,14.70
2017-11-23T14:09:20.767Z,14.70
2017-11-23T14:11:48.214Z,14.80
2017-11-23T14:14:15.668Z,14.80
2017-11-23T14:16:43.140Z,14.70
2017-11-23T14:19:10.662Z,14.70
2017-11-23T14:21:38.070Z,14.70
2017-11-23T14:24:05.512Z,14.70
2017-11-23T14:26:32.993Z,14.70
2017-11-23T14:29:00.427Z,14.70
2017-11-23T14:31:27.911Z,14.70
2017-11-23T14:33:55.343Z,14.60
2017-11-23T14:36:22.831Z,14.60
2017-11-23T14:38:50.268Z,14.70
2017-11-23T14:41:17.704Z,14.70
2017-11-23T14:43:45.951Z,14.60
2017-11-23T14:46:13.382Z,14.60
2017-11-23T14:48:40.811Z,14.60
2017-11-23T14:51:08.990Z,14.40
2017-11-23T14:53:36.442Z,14.40
2017-11-23T14:56:03.866Z,14.40
2017-11-23T14:58:31.437Z,14.40
2017-11-23T15:00:58.863Z,14.50
2017-11-23T15:03:26.335Z,14.50
2017-11-23T15:05:53.804Z,14.40
2017-11-23T15:08:21.271Z,14.50
2017-11-23T15:10:48.706Z,14.50
2017-11-23T15:13:16.135Z,14.50
2017-11-23T15:15:44.368Z,14.60
2017-11-23T15:18:11.857Z,14.50
2017-11-23T15:20:39.269Z,14.60
2017-11-23T15:23:06.687Z,14.60
2017-11-23T15:25:34.126Z,14.60
2017-11-23T15:28:01.574Z,14.50
2017-11-23T15:30:29.004Z,14.50
2017-11-23T15:32:56.505Z,14.30
2017-11-23T15:35:23.956Z,14.00
2017-11-23T15:37:51.406Z,13.60
2017-11-23T15:40:18.835Z,13.20
2017-11-23T15:42:47.043Z,12.40
2017-11-23T15:45:14.519Z,12.40
2017-11-23T15:47:43.278Z,12.20
2017-11-23T15:50:11.577Z,12.00
2017-11-23T15:52:39.003Z,12.00
2017-11-23T15:55:07.196Z,11.90
2017-11-23T15:57:34.672Z,11.90
2017-11-23T16:00:02.153Z,11.90
2017-11-23T16:02:29.622Z,11.80
2017-11-23T16:04:57.044Z,11.70
2017-11-23T16:07:24.564Z,11.70
2017-11-23T16:09:52.105Z,11.70
2017-11-23T16:12:19.532Z,11.70
2017-11-23T16:14:46.968Z,11.60
2017-11-23T16:17:15.182Z,11.50
2017-11-23T16:19:42.609Z,11.50
2017-11-23T16:22:10.795Z,11.50
2017-11-23T16:24:39.015Z,11.60
2017-11-23T16:27:06.447Z,11.60
2017-11-23T16:29:33.871Z,11.60
2017-11-23T16:32:01.325Z,11.60
2017-11-23T16:34:28.742Z,11.60
2017-11-23T16:37:12.942Z,11.70
2017-11-23T16:39:40.379Z,11.60
2017-11-23T16:42:13.452Z,11.60
2017-11-23T16:44:46.608Z,11.60
2017-11-23T16:47:19.639Z,11.50
2017-11-23T16:49:52.891Z,11.40
2017-11-23T16:55:25.043Z,11.30
2017-11-23T16:58:04.943Z,11.40
2017-11-23T17:00:34.823Z,11.40
2017-11-23T17:03:08.727Z,11.40
2017-11-23T17:05:42.625Z,11.40
2017-11-23T17:08:15.807Z,11.40
2017-11-23T17:10:59.899Z,11.40
2017-11-23T17:13:29.171Z,11.40
2017-11-23T17:16:04.115Z,11.30
2017-11-23T17:18:33.321Z,11.20
2017-11-23T17:21:00.800Z,11.20
2017-11-23T17:23:28.255Z,11.20
2017-11-23T17:25:56.479Z,11.20
2017-11-23T17:28:23.927Z,11.20
2017-11-23T17:30:51.371Z,11.20
2017-11-23T17:33:18.827Z,11.20
2017-11-23T17:35:46.284Z,11.30
2017-11-23T17:38:13.744Z,11.30
2017-11-23T17:40:41.162Z,11.30
2017-11-23T17:43:09.362Z,11.40
2017-11-23T17:45:36.842Z,11.30
2017-11-23T17:48:04.307Z,11.40
2017-11-23T17:50:31.767Z,11.40
2017-11-23T17:52:59.198Z,11.40
2017-11-23T17:55:26.658Z,11.40
2017-11-23T17:57:54.079Z,11.40
2017-11-23T18:00:21.511Z,11.40
2017-11-23T18:02:48.935Z,11.40
2017-11-23T18:05:17.135Z,11.40
2017-11-23T18:07:44.618Z,11.40
2017-11-23T18:10:12.051Z,11.40
2017-11-23T18:12:39.474Z,11.40
2017-11-23T18:15:06.902Z,11.40
2017-11-23T18:17:34.335Z,11.50
2017-11-23T18:20:01.765Z,11.50
2017-11-23T18:22:29.963Z,11.50
2017-11-23T18:24:57.448Z,11.50
2017-11-23T18:27:24.882Z,11.50
2017-11-23T18:29:53.095Z,11.60
2017-11-23T18:32:20.540Z,11.60
2017-11-23T18:34:48.039Z,11.70
2017-11-23T18:37:15.480Z,11.70
2017-11-23T18:39:43.039Z,11.70
2017-11-23T18:42:10.466Z,11.60
2017-11-23T18:44:38.768Z,11.60
2017-11-23T18:47:06.199Z,11.60
2017-11-23T18:49:34.379Z,11.60
2017-11-23T18:52:02.571Z,11.60
2017-11-23T18:54:30.016Z,11.50
2017-11-23T18:56:58.355Z,11.50
2017-11-23T18:59:25.903Z,11.50
2017-11-23T19:01:53.324Z,11.50
2017-11-23T19:04:21.519Z,11.40
2017-11-23T19:06:49.056Z,11.40
2017-11-23T19:09:17.255Z,11.20
2017-11-23T19:11:44.752Z,11.30
2017-11-23T19:14:12.214Z,11.20
2017-11-23T19:16:39.794Z,11.20
2017-11-23T19:19:07.244Z,11.10
2017-11-23T19:21:34.680Z,11.20
2017-11-23T19:24:02.135Z,11.20
2017-11-23T19:26:29.628Z,11.20
2017-11-23T19:28:57.079Z,11.20
2017-11-23T19:31:24.627Z,11.20
2017-11-23T19:33:52.035Z,11.10
2017-11-23T19:36:20.279Z,11.00
2017-11-23T19:38:47.719Z,11.00
2017-11-23T19:41:15.904Z,10.90
2017-11-23T19:43:43.476Z,10.90
2017-11-23T19:46:10.952Z,10.80
2017-11-23T19:48:38.387Z,10.80
2017-11-23T19:51:05.814Z,10.70
2017-11-23T19:53:34.025Z,10.70
2017-11-23T19:56:01.468Z,10.70
2017-11-23T19:58:29.688Z,10.50
2017-11-23T20:00:57.141Z,10.60
2017-11-23T20:03:24.563Z,10.50
2017-11-23T20:05:52.750Z,10.50
2017-11-23T20:08:20.245Z,10.40
2017-11-23T20:10:47.706Z,10.50
2017-11-23T20:13:15.154Z,10.50
2017-11-23T20:15:42.574Z,10.40
2017-11-23T20:18:09.999Z,10.40
2017-11-23T20:20:37.422Z,10.30
2017-11-23T20:23:05.368Z,10.40
2017-11-23T20:25:32.799Z,10.30
2017-11-23T20:28:00.242Z,10.30
2017-11-23T20:30:27.698Z,10.20
2017-11-23T20:32:55.168Z,10.20
2017-11-23T20:35:22.623Z,10.10
2017-11-23T20:37:50.071Z,10.10
2017-11-23T20:40:17.495Z,10.00
2017-11-23T20:42:45.695Z,10.00
2017-11-23T20:45:13.146Z,10.00
2017-11-23T20:47:41.392Z,9.90
2017-11-23T20:50:08.933Z,9.90
2017-11-23T20:52:36.343Z,9.90
2017-11-23T20:55:04.555Z,9.90
2017-11-23T20:57:32.039Z,9.90
2017-11-23T20:59:59.479Z,9.80
2017-11-23T21:02:26.970Z,9.80
2017-11-23T21:04:54.391Z,9.80
2017-11-23T21:07:21.831Z,9.70
2017-11-23T21:09:50.067Z,9.60
2017-11-23T21:12:17.493Z,9.60
2017-11-23T21:14:44.914Z,9.60
2017-11-23T21:17:12.340Z,9.60
2017-11-23T21:19:39.803Z,9.60
2017-11-23T21:22:07.244Z,9.60
2017-11-23T21:24:34.679Z,9.60
2017-11-23T21:27:02.898Z,9.40
2017-11-23T21:29:30.318Z,9.40
2017-11-23T21:31:58.513Z,9.40
2017-11-23T21:34:25.991Z,9.40
2017-11-23T21:36:53.429Z,9.40
2017-11-23T21:39:21.612Z,9.40
2017-11-23T21:41:49.104Z,9.40
2017-11-23T21:44:16.515Z,9.50
2017-11-23T21:46:44.722Z,9.50
2017-11-23T21:49:12.147Z,9.50
2017-11-23T21:51:40.360Z,9.50
2017-11-23T21:54:07.838Z,9.40
2017-11-23T21:56:35.294Z,9.50
2017-11-23T21:59:02.728Z,9.40
2017-11-23T22:01:30.143Z,9.40
2017-11-23T22:03:57.684Z,9.30
2017-11-23T22:06:25.147Z,9.30
2017-11-23T22:08:52.606Z,9.30
2017-11-23T22:11:20.068Z,9.30
2017-11-23T22:13:47.531Z,9.30
2017-11-23T22:16:14.983Z,9.30
2017-11-23T22:18:42.412Z,9.30
2017-11-23T22:21:10.602Z,9.40
2017-11-23T22:23:38.018Z,9.40
2017-11-23T22:26:05.466Z,9.40
2017-11-23T22:28:32.899Z,9.40
2017-11-23T22:31:00.365Z,9.40
2017-11-23T22:33:27.851Z,9.40
2017-11-23T22:35:55.275Z,9.40
2017-11-23T22:38:22.703Z,9.30
2017-11-23T22:40:50.894Z,9.30
2017-11-23T22:43:19.108Z,9.30
2017-11-23T22:45:46.551Z,9.30
2017-11-23T22:48:14.750Z,9.50
2017-11-23T22:50:42.173Z,9.50
2017-11-23T22:53:10.363Z,9.60
2017-11-23T22:55:37.792Z,9.60
2017-11-23T22:58:05.319Z,9.60
2017-11-23T23:00:32.762Z,9.60
2017-11-23T23:03:00.248Z,9.60
2017-11-23T23:05:27.658Z,9.60
2017-11-23T23:07:55.853Z,9.60
2017-11-23T23:10:23.329Z,9.50
2017-11-23T23:12:50.754Z,9.50
2017-11-23T23:15:18.946Z,9.50
2017-11-23T23:17:46.430Z,9.60
2017-11-23T23:20:13.890Z,9.60
2017-11-23T23:22:41.351Z,9.60
2017-11-23T23:25:08.779Z,9.60
2017-11-23T23:27:36.971Z,9.60
2017-11-23T23:30:04.411Z,9.70
2017-11-23T23:32:32.639Z,9.70
2017-11-23T23:35:00.091Z,9.70
2017-11-23T23:37:27.551Z,9.80
2017-11-23T23:39:55.044Z,9.80
2017-11-23T23:42:22.466Z,9.90
2017-11-23T23:44:49.894Z,9.90
2017-11-23T23:47:18.151Z,10.00
2017-11-23T23:49:45.564Z,10.00
2017-11-23T23:52:13.048Z,10.00
2017-11-23T23:54:40.487Z,10.00
2017-11-23T23:57:07.914Z,10.00
2017-11-23T23:59:36.105Z,10.00
